sensor_id;sensor_type;location;lat;lon;timestamp;pressure;altitude;pressure_sealevel;temperature;humidity
44140;BME280;29803;51.048;4.686;2023-04-25T00:02:15;101130.50;;;7.50;100.00
44140;BME280;29803;51.048;4.686;2023-04-25T00:04:46;101130.22;;;7.44;100.00
44140;BME280;29803;51.048;4.686;2023-04-25T00:07:18;101125.41;;;7.47;100.00
44140;BME280;29803;51.048;4.686;2023-04-25T00:09:49;101129.06;;;7.46;100.00
44140;BME280;29803;51.048;4.686;2023-04-25T00:12:20;101127.97;;;7.39;100.00
44140;BME280;29803;51.048;4.686;2023-04-25T00:14:52;101126.28;;;7.38;100.00
44140;BME280;29803;51.048;4.686;2023-04-25T00:17:23;101122.88;;;7.36;100.00
44140;BME280;29803;51.048;4.686;2023-04-25T00:19:54;101122.63;;;7.39;100.00
44140;BME280;29803;51.048;4.686;2023-04-25T00:22:26;101128.06;;;7.38;100.00
44140;BME280;29803;51.048;4.686;2023-04-25T00:24:56;101127.53;;;7.34;100.00
44140;BME280;29803;51.048;4.686;2023-04-25T00:27:30;101131.47;;;7.40;100.00
44140;BME280;29803;51.048;4.686;2023-04-25T00:30:00;101132.56;;;7.37;100.00
44140;BME280;29803;51.048;4.686;2023-04-25T00:32:30;101128.53;;;7.33;100.00
44140;BME280;29803;51.048;4.686;2023-04-25T00:35:01;101127.81;;;7.31;100.00
44140;BME280;29803;51.048;4.686;2023-04-25T00:37:31;101140.44;;;7.29;100.00
44140;BME280;29803;51.048;4.686;2023-04-25T00:40:02;101145.22;;;7.25;100.00
44140;BME280;29803;51.048;4.686;2023-04-25T00:42:36;101133.97;;;7.22;100.00
44140;BME280;29803;51.048;4.686;2023-04-25T00:45:07;101138.59;;;7.20;100.00
44140;BME280;29803;51.048;4.686;2023-04-25T00:47:39;101136.91;;;7.19;100.00
44140;BME280;29803;51.048;4.686;2023-04-25T00:50:10;101139.00;;;7.15;100.00
44140;BME280;29803;51.048;4.686;2023-04-25T00:52:43;101133.94;;;7.12;100.00
44140;BME280;29803;51.048;4.686;2023-04-25T00:55:14;101135.75;;;7.12;100.00
44140;BME280;29803;51.048;4.686;2023-04-25T00:57:49;101136.75;;;7.11;100.00
44140;BME280;29803;51.048;4.686;2023-04-25T01:00:20;101136.91;;;7.09;100.00
44140;BME280;29803;51.048;4.686;2023-04-25T01:02:50;101147.28;;;7.12;100.00
44140;BME280;29803;51.048;4.686;2023-04-25T01:05:21;101144.50;;;7.14;100.00
44140;BME280;29803;51.048;4.686;2023-04-25T01:07:51;101141.41;;;7.18;100.00
44140;BME280;29803;51.048;4.686;2023-04-25T01:10:22;101137.75;;;7.19;100.00
44140;BME280;29803;51.048;4.686;2023-04-25T01:13:09;101141.41;;;7.18;100.00
44140;BME280;29803;51.048;4.686;2023-04-25T01:15:48;101140.03;;;7.24;100.00
44140;BME280;29803;51.048;4.686;2023-04-25T01:18:29;101145.03;;;7.17;100.00
44140;BME280;29803;51.048;4.686;2023-04-25T01:21:11;101146.03;;;7.16;100.00
44140;BME280;29803;51.048;4.686;2023-04-25T01:23:43;101148.44;;;7.19;100.00
44140;BME280;29803;51.048;4.686;2023-04-25T01:26:13;101143.38;;;7.26;100.00
44140;BME280;29803;51.048;4.686;2023-04-25T01:28:43;101148.88;;;7.24;100.00
44140;BME280;29803;51.048;4.686;2023-04-25T01:31:15;101147.88;;;7.25;100.00
44140;BME280;29803;51.048;4.686;2023-04-25T01:33:48;101146.19;;;7.24;100.00
44140;BME280;29803;51.048;4.686;2023-04-25T01:36:18;101156.28;;;7.21;100.00
44140;BME280;29803;51.048;4.686;2023-04-25T01:38:49;101156.03;;;7.24;100.00
44140;BME280;29803;51.048;4.686;2023-04-25T01:41:19;101153.38;;;7.24;100.00
44140;BME280;29803;51.048;4.686;2023-04-25T01:43:53;101161.38;;;7.24;100.00
44140;BME280;29803;51.048;4.686;2023-04-25T01:46:24;101158.97;;;7.21;100.00
44140;BME280;29803;51.048;4.686;2023-04-25T01:48:54;101155.44;;;7.20;100.00
44140;BME280;29803;51.048;4.686;2023-04-25T01:51:25;101159.38;;;7.16;100.00
44140;BME280;29803;51.048;4.686;2023-04-25T01:53:55;101157.94;;;7.12;100.00
44140;BME280;29803;51.048;4.686;2023-04-25T01:59:15;101165.50;;;7.07;100.00
44140;BME280;29803;51.048;4.686;2023-04-25T02:01:46;101170.16;;;7.05;100.00
44140;BME280;29803;51.048;4.686;2023-04-25T02:04:16;101169.88;;;6.98;100.00
44140;BME280;29803;51.048;4.686;2023-04-25T02:06:47;101173.22;;;7.00;100.00
44140;BME280;29803;51.048;4.686;2023-04-25T02:09:17;101175.91;;;7.00;100.00
44140;BME280;29803;51.048;4.686;2023-04-25T02:11:48;101178.72;;;6.99;100.00
44140;BME280;29803;51.048;4.686;2023-04-25T02:14:19;101176.44;;;6.94;100.00
44140;BME280;29803;51.048;4.686;2023-04-25T02:16:53;101169.41;;;6.93;100.00
44140;BME280;29803;51.048;4.686;2023-04-25T02:19:24;101165.19;;;6.91;100.00
44140;BME280;29803;51.048;4.686;2023-04-25T02:21:55;101175.00;;;6.90;100.00
44140;BME280;29803;51.048;4.686;2023-04-25T02:24:32;101175.84;;;6.91;100.00
44140;BME280;29803;51.048;4.686;2023-04-25T02:27:04;101183.00;;;6.90;100.00
44140;BME280;29803;51.048;4.686;2023-04-25T02:29:35;101180.34;;;6.90;100.00
44140;BME280;29803;51.048;4.686;2023-04-25T02:32:05;101174.03;;;6.91;100.00
44140;BME280;29803;51.048;4.686;2023-04-25T02:34:36;101182.44;;;6.87;100.00
44140;BME280;29803;51.048;4.686;2023-04-25T02:37:07;101185.00;;;6.88;100.00
44140;BME280;29803;51.048;4.686;2023-04-25T02:39:37;101182.88;;;6.92;100.00
44140;BME280;29803;51.048;4.686;2023-04-25T02:42:08;101184.16;;;6.97;100.00
44140;BME280;29803;51.048;4.686;2023-04-25T02:44:38;101175.72;;;6.92;100.00
44140;BME280;29803;51.048;4.686;2023-04-25T02:47:09;101190.03;;;6.91;100.00
44140;BME280;29803;51.048;4.686;2023-04-25T02:49:39;101184.59;;;6.93;100.00
44140;BME280;29803;51.048;4.686;2023-04-25T02:52:09;101186.66;;;6.89;100.00
44140;BME280;29803;51.048;4.686;2023-04-25T02:54:40;101184.25;;;6.86;100.00
44140;BME280;29803;51.048;4.686;2023-04-25T02:57:10;101189.59;;;6.86;100.00
44140;BME280;29803;51.048;4.686;2023-04-25T02:59:41;101180.59;;;6.87;100.00
44140;BME280;29803;51.048;4.686;2023-04-25T03:02:11;101194.22;;;6.84;100.00
44140;BME280;29803;51.048;4.686;2023-04-25T03:04:41;101188.44;;;6.79;100.00
44140;BME280;29803;51.048;4.686;2023-04-25T03:07:12;101185.34;;;6.74;100.00
44140;BME280;29803;51.048;4.686;2023-04-25T03:09:42;101188.66;;;6.66;100.00
44140;BME280;29803;51.048;4.686;2023-04-25T03:12:12;101194.53;;;6.60;100.00
44140;BME280;29803;51.048;4.686;2023-04-25T03:14:43;101196.16;;;6.52;100.00
44140;BME280;29803;51.048;4.686;2023-04-25T03:17:13;101194.84;;;6.46;100.00
44140;BME280;29803;51.048;4.686;2023-04-25T03:19:44;101201.69;;;6.39;100.00
44140;BME280;29803;51.048;4.686;2023-04-25T03:22:14;101194.34;;;6.31;100.00
44140;BME280;29803;51.048;4.686;2023-04-25T03:24:44;101192.34;;;6.23;100.00
44140;BME280;29803;51.048;4.686;2023-04-25T03:27:15;101194.03;;;6.25;100.00
44140;BME280;29803;51.048;4.686;2023-04-25T03:29:46;101185.34;;;6.22;100.00
44140;BME280;29803;51.048;4.686;2023-04-25T03:32:16;101192.72;;;6.19;100.00
44140;BME280;29803;51.048;4.686;2023-04-25T03:34:46;101183.31;;;6.15;100.00
44140;BME280;29803;51.048;4.686;2023-04-25T03:37:17;101188.31;;;6.08;100.00
44140;BME280;29803;51.048;4.686;2023-04-25T03:39:47;101198.13;;;6.08;100.00
44140;BME280;29803;51.048;4.686;2023-04-25T03:42:17;101196.41;;;6.07;100.00
44140;BME280;29803;51.048;4.686;2023-04-25T03:44:48;101200.56;;;6.00;100.00
44140;BME280;29803;51.048;4.686;2023-04-25T03:47:19;101201.66;;;5.97;100.00
44140;BME280;29803;51.048;4.686;2023-04-25T03:49:49;101199.13;;;5.95;100.00
44140;BME280;29803;51.048;4.686;2023-04-25T03:52:21;101202.13;;;5.91;100.00
44140;BME280;29803;51.048;4.686;2023-04-25T03:54:52;101200.34;;;5.91;100.00
44140;BME280;29803;51.048;4.686;2023-04-25T03:57:22;101203.84;;;5.92;100.00
44140;BME280;29803;51.048;4.686;2023-04-25T03:59:52;101202.06;;;5.92;100.00
44140;BME280;29803;51.048;4.686;2023-04-25T04:02:23;101200.25;;;5.93;100.00
44140;BME280;29803;51.048;4.686;2023-04-25T04:04:53;101204.22;;;5.99;100.00
44140;BME280;29803;51.048;4.686;2023-04-25T04:07:23;101201.28;;;6.02;100.00
44140;BME280;29803;51.048;4.686;2023-04-25T04:09:54;101209.03;;;6.05;100.00
44140;BME280;29803;51.048;4.686;2023-04-25T04:12:24;101208.31;;;6.03;100.00
44140;BME280;29803;51.048;4.686;2023-04-25T04:14:55;101216.03;;;6.06;100.00
44140;BME280;29803;51.048;4.686;2023-04-25T04:17:25;101222.78;;;6.10;100.00
44140;BME280;29803;51.048;4.686;2023-04-25T04:19:56;101211.03;;;6.12;100.00
44140;BME280;29803;51.048;4.686;2023-04-25T04:22:26;101215.13;;;6.16;100.00
44140;BME280;29803;51.048;4.686;2023-04-25T04:24:59;101217.53;;;6.19;100.00
44140;BME280;29803;51.048;4.686;2023-04-25T04:27:29;101218.38;;;6.20;100.00
44140;BME280;29803;51.048;4.686;2023-04-25T04:30:00;101215.47;;;6.23;100.00
44140;BME280;29803;51.048;4.686;2023-04-25T04:32:33;101221.66;;;6.23;100.00
44140;BME280;29803;51.048;4.686;2023-04-25T04:35:04;101221.66;;;6.23;100.00
44140;BME280;29803;51.048;4.686;2023-04-25T04:37:36;101226.38;;;6.20;100.00
44140;BME280;29803;51.048;4.686;2023-04-25T04:40:07;101236.19;;;6.19;100.00
44140;BME280;29803;51.048;4.686;2023-04-25T04:42:38;101231.72;;;6.20;100.00
44140;BME280;29803;51.048;4.686;2023-04-25T04:45:09;101228.78;;;6.23;100.00
44140;BME280;29803;51.048;4.686;2023-04-25T04:47:40;101238.63;;;6.22;100.00
44140;BME280;29803;51.048;4.686;2023-04-25T04:50:10;101245.50;;;6.25;100.00
44140;BME280;29803;51.048;4.686;2023-04-25T04:52:41;101249.97;;;6.25;100.00
44140;BME280;29803;51.048;4.686;2023-04-25T04:55:11;101260.88;;;6.21;100.00
44140;BME280;29803;51.048;4.686;2023-04-25T04:57:41;101263.16;;;6.26;100.00
44140;BME280;29803;51.048;4.686;2023-04-25T05:00:12;101263.91;;;6.28;100.00
44140;BME280;29803;51.048;4.686;2023-04-25T05:02:43;101258.56;;;6.28;100.00
44140;BME280;29803;51.048;4.686;2023-04-25T05:05:13;101263.91;;;6.28;100.00
44140;BME280;29803;51.048;4.686;2023-04-25T05:07:43;101270.91;;;6.29;100.00
44140;BME280;29803;51.048;4.686;2023-04-25T05:10:14;101269.09;;;6.30;100.00
44140;BME280;29803;51.048;4.686;2023-04-25T05:12:44;101268.44;;;6.37;100.00
44140;BME280;29803;51.048;4.686;2023-04-25T05:15:15;101273.75;;;6.37;100.00
44140;BME280;29803;51.048;4.686;2023-04-25T05:17:45;101275.47;;;6.38;100.00
44140;BME280;29803;51.048;4.686;2023-04-25T05:20:16;101275.19;;;6.41;100.00
44140;BME280;29803;51.048;4.686;2023-04-25T05:22:48;101284.63;;;6.45;100.00
44140;BME280;29803;51.048;4.686;2023-04-25T05:25:18;101296.00;;;6.47;100.00
44140;BME280;29803;51.048;4.686;2023-04-25T05:27:49;101296.97;;;6.46;100.00
44140;BME280;29803;51.048;4.686;2023-04-25T05:30:21;101299.41;;;6.49;100.00
44140;BME280;29803;51.048;4.686;2023-04-25T05:32:51;101296.50;;;6.53;100.00
44140;BME280;29803;51.048;4.686;2023-04-25T05:35:22;101300.84;;;6.54;100.00
44140;BME280;29803;51.048;4.686;2023-04-25T05:37:52;101305.06;;;6.56;100.00
44140;BME280;29803;51.048;4.686;2023-04-25T05:40:22;101301.88;;;6.62;100.00
44140;BME280;29803;51.048;4.686;2023-04-25T05:42:53;101300.63;;;6.66;100.00
44140;BME280;29803;51.048;4.686;2023-04-25T05:45:23;101297.72;;;6.69;100.00
44140;BME280;29803;51.048;4.686;2023-04-25T05:47:53;101316.56;;;6.78;100.00
44140;BME280;29803;51.048;4.686;2023-04-25T05:50:24;101319.28;;;6.87;100.00
44140;BME280;29803;51.048;4.686;2023-04-25T05:52:54;101324.81;;;6.95;100.00
44140;BME280;29803;51.048;4.686;2023-04-25T05:55:25;101320.78;;;7.01;100.00
44140;BME280;29803;51.048;4.686;2023-04-25T05:57:55;101320.53;;;7.04;100.00
44140;BME280;29803;51.048;4.686;2023-04-25T06:00:25;101325.72;;;7.06;100.00
44140;BME280;29803;51.048;4.686;2023-04-25T06:03:05;101327.69;;;7.04;100.00
44140;BME280;29803;51.048;4.686;2023-04-25T06:05:37;101320.53;;;7.04;100.00
44140;BME280;29803;51.048;4.686;2023-04-25T06:08:08;101324.34;;;7.11;100.00
44140;BME280;29803;51.048;4.686;2023-04-25T06:10:39;101333.53;;;7.18;100.00
44140;BME280;29803;51.048;4.686;2023-04-25T06:13:09;101337.94;;;7.29;100.00
44140;BME280;29803;51.048;4.686;2023-04-25T06:15:40;101333.59;;;7.28;100.00
44140;BME280;29803;51.048;4.686;2023-04-25T06:18:10;101336.97;;;7.30;100.00
44140;BME280;29803;51.048;4.686;2023-04-25T06:20:41;101343.13;;;7.31;100.00
44140;BME280;29803;51.048;4.686;2023-04-25T06:23:11;101341.00;;;7.24;100.00
44140;BME280;29803;51.048;4.686;2023-04-25T06:25:41;101344.66;;;7.23;100.00
44140;BME280;29803;51.048;4.686;2023-04-25T06:28:12;101349.28;;;7.21;100.00
44140;BME280;29803;51.048;4.686;2023-04-25T06:30:42;101355.06;;;7.26;100.00
44140;BME280;29803;51.048;4.686;2023-04-25T06:33:12;101347.25;;;7.35;100.00
44140;BME280;29803;51.048;4.686;2023-04-25T06:35:43;101359.22;;;7.40;100.00
44140;BME280;29803;51.048;4.686;2023-04-25T06:38:13;101355.94;;;7.37;100.00
44140;BME280;29803;51.048;4.686;2023-04-25T06:40:44;101359.34;;;7.39;100.00
44140;BME280;29803;51.048;4.686;2023-04-25T06:43:14;101360.88;;;7.41;100.00
44140;BME280;29803;51.048;4.686;2023-04-25T06:45:45;101364.16;;;7.45;100.00
44140;BME280;29803;51.048;4.686;2023-04-25T06:48:15;101372.34;;;7.53;100.00
44140;BME280;29803;51.048;4.686;2023-04-25T06:50:45;101363.78;;;7.59;100.00
44140;BME280;29803;51.048;4.686;2023-04-25T06:53:16;101366.63;;;7.67;100.00
44140;BME280;29803;51.048;4.686;2023-04-25T06:55:46;101372.84;;;7.77;100.00
44140;BME280;29803;51.048;4.686;2023-04-25T06:58:17;101378.09;;;7.89;100.00
44140;BME280;29803;51.048;4.686;2023-04-25T07:00:47;101382.19;;;8.02;100.00
44140;BME280;29803;51.048;4.686;2023-04-25T07:03:18;101387.31;;;8.15;100.00
44140;BME280;29803;51.048;4.686;2023-04-25T07:05:48;101382.81;;;8.25;100.00
44140;BME280;29803;51.048;4.686;2023-04-25T07:08:19;101386.25;;;8.37;100.00
44140;BME280;29803;51.048;4.686;2023-04-25T07:10:49;101394.28;;;8.47;100.00
44140;BME280;29803;51.048;4.686;2023-04-25T07:13:20;101388.78;;;8.68;100.00
44140;BME280;29803;51.048;4.686;2023-04-25T07:15:50;101395.28;;;8.75;100.00
44140;BME280;29803;51.048;4.686;2023-04-25T07:18:21;101398.66;;;8.77;100.00
44140;BME280;29803;51.048;4.686;2023-04-25T07:20:51;101404.00;;;8.57;100.00
44140;BME280;29803;51.048;4.686;2023-04-25T07:23:22;101402.28;;;8.37;100.00
44140;BME280;29803;51.048;4.686;2023-04-25T07:25:52;101404.22;;;8.35;100.00
44140;BME280;29803;51.048;4.686;2023-04-25T07:28:22;101405.34;;;8.32;100.00
44140;BME280;29803;51.048;4.686;2023-04-25T07:30:53;101413.50;;;8.31;100.00
44140;BME280;29803;51.048;4.686;2023-04-25T07:33:23;101409.72;;;8.34;100.00
44140;BME280;29803;51.048;4.686;2023-04-25T07:35:53;101409.88;;;8.42;100.00
44140;BME280;29803;51.048;4.686;2023-04-25T07:38:24;101417.50;;;8.46;100.00
44140;BME280;29803;51.048;4.686;2023-04-25T07:40:55;101414.69;;;8.48;100.00
44140;BME280;29803;51.048;4.686;2023-04-25T07:43:25;101410.06;;;8.50;100.00
44140;BME280;29803;51.048;4.686;2023-04-25T07:45:56;101410.34;;;8.56;100.00
44140;BME280;29803;51.048;4.686;2023-04-25T07:48:26;101421.31;;;8.53;100.00
44140;BME280;29803;51.048;4.686;2023-04-25T07:50:57;101414.25;;;8.52;100.00
44140;BME280;29803;51.048;4.686;2023-04-25T07:53:27;101432.28;;;8.50;100.00
44140;BME280;29803;51.048;4.686;2023-04-25T07:55:58;101431.56;;;8.58;100.00
44140;BME280;29803;51.048;4.686;2023-04-25T07:58:28;101426.81;;;8.62;100.00
44140;BME280;29803;51.048;4.686;2023-04-25T08:00:59;101434.81;;;8.62;100.00
44140;BME280;29803;51.048;4.686;2023-04-25T08:03:29;101436.09;;;8.77;100.00
44140;BME280;29803;51.048;4.686;2023-04-25T08:05:59;101440.63;;;9.05;100.00
44140;BME280;29803;51.048;4.686;2023-04-25T08:08:30;101435.19;;;9.54;100.00
44140;BME280;29803;51.048;4.686;2023-04-25T08:11:00;101446.63;;;9.83;100.00
44140;BME280;29803;51.048;4.686;2023-04-25T08:13:31;101458.03;;;10.23;100.00
44140;BME280;29803;51.048;4.686;2023-04-25T08:16:01;101459.88;;;10.22;100.00
44140;BME280;29803;51.048;4.686;2023-04-25T08:18:31;101462.00;;;10.28;100.00
44140;BME280;29803;51.048;4.686;2023-04-25T08:21:02;101461.75;;;11.21;100.00
44140;BME280;29803;51.048;4.686;2023-04-25T08:23:32;101463.63;;;11.46;100.00
44140;BME280;29803;51.048;4.686;2023-04-25T08:26:03;101467.16;;;11.47;100.00
44140;BME280;29803;51.048;4.686;2023-04-25T08:28:34;101470.69;;;11.47;100.00
44140;BME280;29803;51.048;4.686;2023-04-25T08:31:05;101477.53;;;11.67;100.00
44140;BME280;29803;51.048;4.686;2023-04-25T08:33:35;101480.06;;;11.43;100.00
44140;BME280;29803;51.048;4.686;2023-04-25T08:36:06;101486.69;;;11.31;100.00
44140;BME280;29803;51.048;4.686;2023-04-25T08:38:36;101496.97;;;11.35;100.00
44140;BME280;29803;51.048;4.686;2023-04-25T08:41:07;101491.97;;;11.23;100.00
44140;BME280;29803;51.048;4.686;2023-04-25T08:43:37;101492.81;;;11.23;100.00
44140;BME280;29803;51.048;4.686;2023-04-25T08:46:11;101498.16;;;11.15;100.00
44140;BME280;29803;51.048;4.686;2023-04-25T08:48:43;101498.50;;;11.02;100.00
44140;BME280;29803;51.048;4.686;2023-04-25T08:51:15;101508.94;;;10.70;100.00
44140;BME280;29803;51.048;4.686;2023-04-25T08:53:51;101503.84;;;10.39;100.00
44140;BME280;29803;51.048;4.686;2023-04-25T08:56:22;101503.22;;;10.18;100.00
44140;BME280;29803;51.048;4.686;2023-04-25T08:58:53;101510.06;;;10.02;100.00
44140;BME280;29803;51.048;4.686;2023-04-25T09:01:25;101515.91;;;9.78;100.00
44140;BME280;29803;51.048;4.686;2023-04-25T09:03:57;101511.88;;;9.65;100.00
44140;BME280;29803;51.048;4.686;2023-04-25T09:06:28;101524.03;;;9.49;100.00
44140;BME280;29803;51.048;4.686;2023-04-25T09:11:46;101542.53;;;8.64;100.00
44140;BME280;29803;51.048;4.686;2023-04-25T09:14:17;101547.16;;;8.31;100.00
44140;BME280;29803;51.048;4.686;2023-04-25T09:19:39;101556.97;;;8.21;100.00
44140;BME280;29803;51.048;4.686;2023-04-25T09:22:10;101562.88;;;8.15;100.00
44140;BME280;29803;51.048;4.686;2023-04-25T09:24:42;101558.44;;;8.04;100.00
44140;BME280;29803;51.048;4.686;2023-04-25T09:27:17;101558.94;;;7.98;100.00
44140;BME280;29803;51.048;4.686;2023-04-25T09:29:48;101569.63;;;7.98;100.00
44140;BME280;29803;51.048;4.686;2023-04-25T09:32:26;101563.41;;;8.09;100.00
44140;BME280;29803;51.048;4.686;2023-04-25T09:34:56;101561.47;;;8.91;100.00
44140;BME280;29803;51.048;4.686;2023-04-25T09:37:28;101566.94;;;9.96;100.00
44140;BME280;29803;51.048;4.686;2023-04-25T09:39:59;101571.28;;;10.81;100.00
44140;BME280;29803;51.048;4.686;2023-04-25T09:42:33;101564.44;;;11.50;100.00
44140;BME280;29803;51.048;4.686;2023-04-25T09:45:04;101568.78;;;12.13;100.00
44140;BME280;29803;51.048;4.686;2023-04-25T09:47:36;101572.72;;;13.11;100.00
44140;BME280;29803;51.048;4.686;2023-04-25T09:53:05;101579.75;;;13.04;100.00
44140;BME280;29803;51.048;4.686;2023-04-25T09:55:36;101575.78;;;13.25;100.00
44140;BME280;29803;51.048;4.686;2023-04-25T09:58:06;101584.34;;;13.20;100.00
44140;BME280;29803;51.048;4.686;2023-04-25T10:00:38;101585.28;;;13.53;100.00
44140;BME280;29803;51.048;4.686;2023-04-25T10:03:08;101581.50;;;14.28;100.00
44140;BME280;29803;51.048;4.686;2023-04-25T10:05:40;101586.34;;;14.48;100.00
44140;BME280;29803;51.048;4.686;2023-04-25T10:08:11;101583.69;;;14.80;100.00
44140;BME280;29803;51.048;4.686;2023-04-25T10:10:42;101589.25;;;14.86;100.00
44140;BME280;29803;51.048;4.686;2023-04-25T10:13:12;101587.13;;;14.02;100.00
44140;BME280;29803;51.048;4.686;2023-04-25T10:15:44;101582.22;;;13.89;100.00
44140;BME280;29803;51.048;4.686;2023-04-25T10:18:15;101587.16;;;13.61;100.00
44140;BME280;29803;51.048;4.686;2023-04-25T10:20:48;101582.09;;;13.66;100.00
44140;BME280;29803;51.048;4.686;2023-04-25T10:23:18;101584.06;;;14.05;100.00
44140;BME280;29803;51.048;4.686;2023-04-25T10:25:50;101587.31;;;14.64;100.00
44140;BME280;29803;51.048;4.686;2023-04-25T10:28:21;101588.16;;;14.95;100.00
44140;BME280;29803;51.048;4.686;2023-04-25T10:33:40;101585.63;;;13.58;100.00
44140;BME280;29803;51.048;4.686;2023-04-25T10:36:14;101586.81;;;12.97;100.00
44140;BME280;29803;51.048;4.686;2023-04-25T10:38:45;101577.34;;;12.77;100.00
44140;BME280;29803;51.048;4.686;2023-04-25T10:41:17;101583.75;;;12.41;100.00
44140;BME280;29803;51.048;4.686;2023-04-25T10:43:49;101589.72;;;12.01;100.00
44140;BME280;29803;51.048;4.686;2023-04-25T10:46:22;101583.28;;;11.76;100.00
44140;BME280;29803;51.048;4.686;2023-04-25T10:48:54;101581.47;;;12.29;100.00
44140;BME280;29803;51.048;4.686;2023-04-25T10:51:27;101579.03;;;12.78;100.00
44140;BME280;29803;51.048;4.686;2023-04-25T11:01:42;101598.00;;;12.68;100.00
44140;BME280;29803;51.048;4.686;2023-04-25T11:09:42;101598.75;;;11.21;100.00
44140;BME280;29803;51.048;4.686;2023-04-25T11:12:15;101601.94;;;10.79;100.00
44140;BME280;29803;51.048;4.686;2023-04-25T11:14:47;101591.88;;;10.16;100.00
44140;BME280;29803;51.048;4.686;2023-04-25T11:17:17;101600.09;;;9.95;100.00
44140;BME280;29803;51.048;4.686;2023-04-25T11:19:48;101605.22;;;9.69;100.00
44140;BME280;29803;51.048;4.686;2023-04-25T11:22:19;101591.81;;;9.50;100.00
44140;BME280;29803;51.048;4.686;2023-04-25T11:24:51;101601.28;;;9.44;100.00
44140;BME280;29803;51.048;4.686;2023-04-25T11:27:21;101607.31;;;9.56;100.00
44140;BME280;29803;51.048;4.686;2023-04-25T11:29:52;101608.16;;;9.66;100.00
44140;BME280;29803;51.048;4.686;2023-04-25T11:32:23;101607.16;;;9.77;100.00
44140;BME280;29803;51.048;4.686;2023-04-25T11:34:53;101598.66;;;10.01;100.00
44140;BME280;29803;51.048;4.686;2023-04-25T11:37:27;101601.66;;;10.54;100.00
44140;BME280;29803;51.048;4.686;2023-04-25T11:39:58;101610.72;;;11.26;100.00
44140;BME280;29803;51.048;4.686;2023-04-25T11:42:28;101602.91;;;11.51;100.00
44140;BME280;29803;51.048;4.686;2023-04-25T11:45:00;101589.16;;;12.15;100.00
44140;BME280;29803;51.048;4.686;2023-04-25T11:47:30;101616.13;;;12.58;100.00
44140;BME280;29803;51.048;4.686;2023-04-25T11:50:02;101613.94;;;13.04;100.00
44140;BME280;29803;51.048;4.686;2023-04-25T11:52:43;101612.03;;;13.38;100.00
44140;BME280;29803;51.048;4.686;2023-04-25T11:55:16;101607.69;;;13.62;100.00
44140;BME280;29803;51.048;4.686;2023-04-25T11:57:48;101603.66;;;13.66;100.00
44140;BME280;29803;51.048;4.686;2023-04-25T12:00:20;101611.72;;;13.50;100.00
44140;BME280;29803;51.048;4.686;2023-04-25T12:02:52;101612.09;;;13.04;100.00
44140;BME280;29803;51.048;4.686;2023-04-25T12:05:24;101612.78;;;13.06;100.00
44140;BME280;29803;51.048;4.686;2023-04-25T12:07:55;101611.72;;;13.58;100.00
44140;BME280;29803;51.048;4.686;2023-04-25T12:10:25;101618.47;;;13.62;100.00
44140;BME280;29803;51.048;4.686;2023-04-25T12:12:56;101623.91;;;13.19;100.00
44140;BME280;29803;51.048;4.686;2023-04-25T12:15:26;101626.97;;;12.40;100.00
44140;BME280;29803;51.048;4.686;2023-04-25T12:17:56;101630.50;;;11.43;100.00
44140;BME280;29803;51.048;4.686;2023-04-25T12:20:27;101627.88;;;11.15;100.00
44140;BME280;29803;51.048;4.686;2023-04-25T12:22:57;101628.00;;;10.96;100.00
44140;BME280;29803;51.048;4.686;2023-04-25T12:28:18;101630.97;;;10.93;100.00
44140;BME280;29803;51.048;4.686;2023-04-25T12:33:36;101619.50;;;12.34;100.00
44140;BME280;29803;51.048;4.686;2023-04-25T12:36:07;101619.25;;;13.21;100.00
44140;BME280;29803;51.048;4.686;2023-04-25T12:38:39;101622.00;;;13.62;100.00
44140;BME280;29803;51.048;4.686;2023-04-25T12:41:10;101629.91;;;13.47;100.00
44140;BME280;29803;51.048;4.686;2023-04-25T12:43:40;101635.09;;;13.33;100.00
44140;BME280;29803;51.048;4.686;2023-04-25T12:46:10;101649.88;;;12.78;100.00
44140;BME280;29803;51.048;4.686;2023-04-25T12:48:41;101646.06;;;11.85;100.00
44140;BME280;29803;51.048;4.686;2023-04-25T12:51:12;101645.81;;;11.60;100.00
44140;BME280;29803;51.048;4.686;2023-04-25T12:53:42;101642.03;;;11.53;100.00
44140;BME280;29803;51.048;4.686;2023-04-25T12:56:13;101645.88;;;11.68;100.00
44140;BME280;29803;51.048;4.686;2023-04-25T12:58:43;101641.22;;;12.14;100.00
44140;BME280;29803;51.048;4.686;2023-04-25T13:01:14;101633.34;;;12.73;100.00
44140;BME280;29803;51.048;4.686;2023-04-25T13:03:44;101650.56;;;12.54;100.00
44140;BME280;29803;51.048;4.686;2023-04-25T13:06:15;101655.31;;;12.34;100.00
44140;BME280;29803;51.048;4.686;2023-04-25T13:08:46;101653.25;;;12.20;100.00
44140;BME280;29803;51.048;4.686;2023-04-25T13:11:16;101657.59;;;12.47;100.00
44140;BME280;29803;51.048;4.686;2023-04-25T13:13:47;101641.25;;;12.66;100.00
44140;BME280;29803;51.048;4.686;2023-04-25T13:16:17;101639.06;;;13.12;100.00
44140;BME280;29803;51.048;4.686;2023-04-25T13:18:50;101645.84;;;13.25;96.99
44140;BME280;29803;51.048;4.686;2023-04-25T13:21:21;101642.59;;;13.13;97.74
44140;BME280;29803;51.048;4.686;2023-04-25T13:23:51;101637.72;;;13.16;100.00
44140;BME280;29803;51.048;4.686;2023-04-25T13:26:21;101650.97;;;13.44;92.34
44140;BME280;29803;51.048;4.686;2023-04-25T13:28:52;101640.53;;;13.57;85.09
44140;BME280;29803;51.048;4.686;2023-04-25T13:31:22;101638.88;;;13.56;100.00
44140;BME280;29803;51.048;4.686;2023-04-25T13:33:53;101634.47;;;13.47;100.00
44140;BME280;29803;51.048;4.686;2023-04-25T13:36:23;101637.81;;;12.90;100.00
44140;BME280;29803;51.048;4.686;2023-04-25T13:38:54;101638.91;;;12.72;100.00
44140;BME280;29803;51.048;4.686;2023-04-25T13:41:24;101640.34;;;12.58;100.00